Time;durP1;ratioP1;P1;durP2;ratioP2;P2;SDS_P1;SDS_P2;PMS_P1;PMS_P2;Temp;Humidity;BMP_temperature;BMP_pressure;BME280_temperature;BME280_humidity;BME280_pressure;Samples;Min_cycle;Max_cycle;Signal;HPM_P1;HPM_P2
2022/04/16 00:01:17;;;;;;;21.33;13.52;;;;;;;;;;5000896;28;97787;-75
2022/04/16 00:03:45;;;;;;;21.50;13.77;;;;;;;;;;4991386;28;95316;-77
2022/04/16 00:06:11;;;;;;;19.20;13.52;;;;;;;;;;4999985;28;97056;-75
2022/04/16 00:08:38;;;;;;;24.00;15.43;;;;;;;;;;5009552;28;97576;-75
2022/04/16 00:11:06;;;;;;;21.83;13.95;;;;;;;;;;4991930;28;97556;-75
2022/04/16 00:13:32;;;;;;;22.75;14.68;;;;;;;;;;4990207;28;96417;-76
2022/04/16 00:15:58;;;;;;;22.58;15.13;;;;;;;;;;4991252;28;95446;-75
2022/04/16 00:18:25;;;;;;;18.88;13.32;;;;;;;;;;4992171;28;96274;-75
2022/04/16 00:20:55;;;;;;;18.27;14.13;;;;;;;;;;5010586;28;97315;-77
2022/04/16 00:23:21;;;;;;;20.95;14.00;;;;;;;;;;5010728;28;95367;-75
2022/04/16 00:25:48;;;;;;;21.77;14.60;;;;;;;;;;5005331;28;96786;-77
2022/04/16 00:28:15;;;;;;;20.65;14.93;;;;;;;;;;4992083;28;97244;-76
2022/04/16 00:30:42;;;;;;;24.13;14.85;;;;;;;;;;5013538;28;96707;-75
2022/04/16 00:33:10;;;;;;;21.20;15.18;;;;;;;;;;5010538;28;97331;-74
2022/04/16 00:35:42;;;;;;;24.90;15.75;;;;;;;;;;5010492;28;95228;-75
2022/04/16 00:38:27;;;;;;;23.77;14.80;;;;;;;;;;5010859;28;97088;-75
2022/04/16 00:40:54;;;;;;;25.65;14.75;;;;;;;;;;4997392;28;97305;-74
2022/04/16 00:43:24;;;;;;;20.00;15.20;;;;;;;;;;5008060;28;96088;-74
2022/04/16 00:45:52;;;;;;;22.75;14.88;;;;;;;;;;4991421;28;97403;-77
2022/04/16 00:48:22;;;;;;;22.90;15.73;;;;;;;;;;4990418;28;96991;-76
2022/04/16 00:53:35;;;;;;;21.65;15.23;;;;;;;;;;4993465;28;96476;-77
2022/04/16 00:56:03;;;;;;;23.58;15.75;;;;;;;;;;4990765;28;95955;-76
2022/04/16 00:58:29;;;;;;;22.30;15.35;;;;;;;;;;5007493;28;96353;-77
2022/04/16 01:00:56;;;;;;;30.10;16.95;;;;;;;;;;4990041;28;97851;-75
2022/04/16 01:03:22;;;;;;;22.45;16.05;;;;;;;;;;5006466;28;95417;-75
2022/04/16 01:05:49;;;;;;;22.75;16.52;;;;;;;;;;5009932;28;96081;-76
2022/04/16 01:08:17;;;;;;;27.08;16.77;;;;;;;;;;5009080;28;97366;-76
2022/04/16 01:10:44;;;;;;;23.02;16.73;;;;;;;;;;5001234;28;95385;-75
2022/04/16 01:13:11;;;;;;;24.92;16.77;;;;;;;;;;5010026;28;96543;-76
2022/04/16 01:15:55;;;;;;;22.88;16.45;;;;;;;;;;4998222;28;96657;-76
2022/04/16 01:18:24;;;;;;;24.15;17.15;;;;;;;;;;5007665;28;97509;-75
2022/04/16 01:20:54;;;;;;;24.30;16.92;;;;;;;;;;4993647;28;97412;-76
2022/04/16 01:23:20;;;;;;;27.95;16.98;;;;;;;;;;4994401;28;96414;-76
2022/04/16 01:25:47;;;;;;;25.45;16.90;;;;;;;;;;4994902;28;97289;-75
2022/04/16 01:28:13;;;;;;;26.10;17.58;;;;;;;;;;5010056;28;98157;-75
2022/04/16 01:30:40;;;;;;;24.85;16.05;;;;;;;;;;5009052;28;95324;-75
2022/04/16 01:33:06;;;;;;;27.60;17.83;;;;;;;;;;5009607;28;97270;-75
2022/04/16 01:35:33;;;;;;;31.50;17.80;;;;;;;;;;5008668;28;97773;-75
2022/04/16 01:37:59;;;;;;;29.58;17.95;;;;;;;;;;4988154;28;97310;-75
2022/04/16 01:40:26;;;;;;;26.75;17.70;;;;;;;;;;4997095;28;97011;-74
2022/04/16 01:43:10;;;;;;;25.75;18.42;;;;;;;;;;4991049;28;95391;-75
2022/04/16 01:45:36;;;;;;;27.40;18.55;;;;;;;;;;4989302;28;97487;-75
2022/04/16 01:48:03;;;;;;;29.50;17.77;;;;;;;;;;5009057;28;97883;-75
2022/04/16 01:50:30;;;;;;;26.60;17.50;;;;;;;;;;4995863;28;95845;-75
2022/04/16 01:52:57;;;;;;;25.40;17.23;;;;;;;;;;4990931;28;97105;-75
2022/04/16 01:55:23;;;;;;;30.77;17.63;;;;;;;;;;4989156;28;97646;-75
2022/04/16 01:57:50;;;;;;;29.00;17.63;;;;;;;;;;4992582;28;95738;-75
2022/04/16 02:00:19;;;;;;;25.85;17.92;;;;;;;;;;4988855;28;97352;-75
2022/04/16 02:02:46;;;;;;;25.52;18.15;;;;;;;;;;5001090;28;95412;-75
2022/04/16 02:05:12;;;;;;;29.33;19.17;;;;;;;;;;5008579;28;97629;-75
2022/04/16 02:07:39;;;;;;;29.85;18.40;;;;;;;;;;5008660;28;98139;-75
2022/04/16 02:10:06;;;;;;;35.63;18.20;;;;;;;;;;5009254;28;95499;-76
2022/04/16 02:12:33;;;;;;;30.33;18.48;;;;;;;;;;5006826;28;96882;-76
2022/04/16 02:15:00;;;;;;;29.90;19.02;;;;;;;;;;5008815;28;98264;-76
2022/04/16 02:17:27;;;;;;;28.88;17.67;;;;;;;;;;5000823;28;95737;-76
2022/04/16 02:19:53;;;;;;;31.08;19.10;;;;;;;;;;4991674;28;97336;-76
2022/04/16 02:22:20;;;;;;;31.45;18.25;;;;;;;;;;4989413;28;96522;-77
2022/04/16 02:24:46;;;;;;;29.95;19.23;;;;;;;;;;4989132;28;97376;-76
2022/04/16 02:27:14;;;;;;;29.70;19.35;;;;;;;;;;4989828;28;97720;-75
2022/04/16 02:29:41;;;;;;;27.42;18.88;;;;;;;;;;4993290;28;95546;-75
2022/04/16 02:32:25;;;;;;;29.33;18.85;;;;;;;;;;5000529;28;95553;-76
2022/04/16 02:34:52;;;;;;;30.25;19.40;;;;;;;;;;5000444;28;97540;-75
2022/04/16 02:37:19;;;;;;;33.60;20.75;;;;;;;;;;5008928;28;95730;-76
2022/04/16 02:40:03;;;;;;;26.15;18.48;;;;;;;;;;5008384;28;97121;-76
2022/04/16 02:42:32;;;;;;;33.38;19.70;;;;;;;;;;5011197;28;97922;-76
2022/04/16 02:48:04;;;;;;;31.60;20.13;;;;;;;;;;4988534;28;97198;-74
2022/04/16 02:50:31;;;;;;;30.50;19.55;;;;;;;;;;4988670;28;95746;-76
2022/04/16 02:52:58;;;;;;;32.72;19.58;;;;;;;;;;4989960;28;97661;-77
2022/04/16 02:55:25;;;;;;;34.85;19.80;;;;;;;;;;4969887;28;97875;-74
2022/04/16 02:57:52;;;;;;;32.70;19.80;;;;;;;;;;4971111;28;95376;-76
2022/04/16 03:00:22;;;;;;;31.75;20.42;;;;;;;;;;4987921;28;97111;-75
2022/04/16 03:02:52;;;;;;;34.28;20.60;;;;;;;;;;4998924;28;98035;-76
2022/04/16 03:05:19;;;;;;;32.63;20.60;;;;;;;;;;5011304;28;95654;-75
2022/04/16 03:07:45;;;;;;;30.83;19.58;;;;;;;;;;5008052;28;97998;-76
2022/04/16 03:10:12;;;;;;;34.70;20.13;;;;;;;;;;5008525;28;95357;-76
2022/04/16 03:12:43;;;;;;;36.85;20.80;;;;;;;;;;5007168;28;96113;-75
2022/04/16 03:17:58;;;;;;;28.98;19.17;;;;;;;;;;5008673;28;95223;-75
2022/04/16 03:20:25;;;;;;;32.97;20.33;;;;;;;;;;5008778;28;96239;-76
2022/04/16 03:22:51;;;;;;;33.20;20.52;;;;;;;;;;5001629;28;97334;-76
2022/04/16 03:25:18;;;;;;;32.97;21.02;;;;;;;;;;4991552;28;95475;-75
2022/04/16 03:27:45;;;;;;;35.63;20.05;;;;;;;;;;4995058;28;97471;-75
2022/04/16 03:30:12;;;;;;;33.60;19.50;;;;;;;;;;4991656;28;95772;-75
2022/04/16 03:32:39;;;;;;;35.45;19.40;;;;;;;;;;4997114;28;97127;-75
2022/04/16 03:35:06;;;;;;;33.22;20.38;;;;;;;;;;5011438;28;97582;-75
2022/04/16 03:37:33;;;;;;;36.67;21.00;;;;;;;;;;5011081;28;95466;-76
2022/04/16 03:39:59;;;;;;;31.92;19.63;;;;;;;;;;5011790;28;96947;-75
2022/04/16 03:42:26;;;;;;;37.83;21.08;;;;;;;;;;4990248;28;97873;-76
2022/04/16 03:44:52;;;;;;;33.72;20.27;;;;;;;;;;5009784;28;95790;-76
2022/04/16 03:47:19;;;;;;;34.35;20.92;;;;;;;;;;5014347;28;97606;-76
2022/04/16 03:49:45;;;;;;;36.22;20.52;;;;;;;;;;5011440;28;95418;-75
2022/04/16 03:52:12;;;;;;;41.67;20.92;;;;;;;;;;5009805;28;97807;-76
2022/04/16 04:00:26;;;;;;;36.50;21.27;;;;;;;;;;4991568;28;95310;-75
2022/04/16 04:02:53;;;;;;;38.92;20.25;;;;;;;;;;4973746;28;97678;-75
2022/04/16 04:05:19;;;;;;;34.30;20.10;;;;;;;;;;4990471;28;95502;-77
2022/04/16 04:07:46;;;;;;;34.15;19.83;;;;;;;;;;4991612;28;97174;-76
2022/04/16 04:10:13;;;;;;;46.40;22.27;;;;;;;;;;4994237;28;96777;-76
2022/04/16 04:12:39;;;;;;;38.50;21.13;;;;;;;;;;4991089;28;97182;-75
2022/04/16 19:08:28;;;;;;;26.70;17.40;;;;;;;;;;5024085;28;95624;-78
2022/04/16 19:10:55;;;;;;;20.13;14.15;;;;;;;;;;5023997;28;96985;-78
2022/04/16 19:13:43;;;;;;;7.63;4.45;;;;;;;;;;5023832;27;99098;-78
2022/04/16 19:16:09;;;;;;;7.47;3.90;;;;;;;;;;5033875;27;95733;-78
2022/04/16 19:18:36;;;;;;;9.23;3.60;;;;;;;;;;5037519;27;96580;-79
2022/04/16 19:21:02;;;;;;;5.97;3.53;;;;;;;;;;5024153;28;97830;-80
2022/04/16 19:23:29;;;;;;;9.75;4.00;;;;;;;;;;5025769;27;96720;-81
2022/04/16 19:25:55;;;;;;;7.05;3.03;;;;;;;;;;5021392;27;97386;-79
2022/04/16 19:28:22;;;;;;;7.25;2.90;;;;;;;;;;5039995;27;95305;-79
2022/04/16 19:30:50;;;;;;;6.25;3.15;;;;;;;;;;5044163;27;97221;-79
2022/04/16 19:33:16;;;;;;;6.85;3.33;;;;;;;;;;5035152;27;97556;-79
2022/04/16 19:35:43;;;;;;;8.05;3.50;;;;;;;;;;5023611;28;95587;-79
2022/04/16 19:38:09;;;;;;;6.45;3.50;;;;;;;;;;5023061;28;97148;-79
2022/04/16 19:40:36;;;;;;;7.03;3.70;;;;;;;;;;5022147;28;97585;-79
2022/04/16 19:43:02;;;;;;;20.88;8.70;;;;;;;;;;5040811;27;95953;-80
2022/04/16 19:45:29;;;;;;;11.90;5.40;;;;;;;;;;5027231;28;96510;-80
2022/04/16 19:47:56;;;;;;;12.07;4.13;;;;;;;;;;5029643;27;95301;-78
2022/04/16 19:50:41;;;;;;;7.20;3.65;;;;;;;;;;5043911;27;96712;-80
2022/04/16 19:53:08;;;;;;;7.72;3.70;;;;;;;;;;5024526;27;96273;-80
2022/04/16 19:58:20;;;;;;;51.00;5.72;;;;;;;;;;5024327;28;96773;-79
2022/04/16 20:00:46;;;;;;;26.65;4.53;;;;;;;;;;5042560;27;97633;-79
2022/04/16 20:03:13;;;;;;;16.25;5.78;;;;;;;;;;5030820;27;95291;-79
2022/04/16 20:05:43;;;;;;;11.90;5.13;;;;;;;;;;5024849;28;96860;-80
2022/04/16 20:10:55;;;;;;;14.15;5.78;;;;;;;;;;5025015;28;96748;-80
2022/04/16 20:13:23;;;;;;;11.77;6.25;;;;;;;;;;5016027;27;97445;-80
2022/04/16 20:15:50;;;;;;;11.07;5.97;;;;;;;;;;5010725;28;95624;-80
2022/04/16 20:18:17;;;;;;;16.50;5.93;;;;;;;;;;5013226;28;97263;-81
2022/04/16 20:20:43;;;;;;;8.90;4.70;;;;;;;;;;5019100;28;97668;-80
2022/04/16 20:23:10;;;;;;;7.85;4.55;;;;;;;;;;5014808;28;95693;-80
2022/04/16 20:25:36;;;;;;;8.20;5.35;;;;;;;;;;5011368;28;95654;-80
2022/04/16 20:28:03;;;;;;;10.23;5.05;;;;;;;;;;5011592;28;97319;-80
2022/04/16 20:33:15;;;;;;;10.02;4.70;;;;;;;;;;4998811;28;97383;-79
2022/04/16 20:35:41;;;;;;;8.93;4.53;;;;;;;;;;4997596;28;95876;-80
2022/04/16 20:38:08;;;;;;;15.80;4.72;;;;;;;;;;5009765;28;96632;-80
2022/04/16 20:46:06;;;;;;;17.67;7.30;;;;;;;;;;5005999;28;96722;-81
2022/04/16 20:48:32;;;;;;;10.23;5.88;;;;;;;;;;5009583;28;97293;-80
2022/04/16 20:53:44;;;;;;;8.70;4.97;;;;;;;;;;4994369;28;97029;-80
2022/04/16 20:56:10;;;;;;;9.52;4.82;;;;;;;;;;4993377;28;95451;-80
2022/04/16 20:58:36;;;;;;;11.60;4.75;;;;;;;;;;5010327;28;96111;-81
2022/04/16 21:01:20;;;;;;;10.50;4.70;;;;;;;;;;5010295;28;95636;-81
2022/04/16 21:03:47;;;;;;;8.52;4.68;;;;;;;;;;5010869;28;95404;-81
2022/04/16 21:06:14;;;;;;;10.88;4.78;;;;;;;;;;5010838;28;98023;-80
2022/04/16 21:08:40;;;;;;;13.63;5.05;;;;;;;;;;5010556;28;96550;-79
2022/04/16 21:11:07;;;;;;;14.90;6.45;;;;;;;;;;5010609;28;95467;-81
2022/04/16 21:13:33;;;;;;;16.65;7.78;;;;;;;;;;5009582;28;96731;-81
2022/04/16 21:16:00;;;;;;;28.15;7.53;;;;;;;;;;5012969;28;95614;-80
2022/04/16 21:18:27;;;;;;;23.10;8.18;;;;;;;;;;5010224;28;98170;-79
2022/04/16 21:20:54;;;;;;;18.67;7.68;;;;;;;;;;5010680;28;97327;-82
2022/04/16 21:23:20;;;;;;;13.00;6.68;;;;;;;;;;5010704;28;96001;-78
2022/04/16 21:25:46;;;;;;;16.75;6.30;;;;;;;;;;5009002;28;96776;-79
2022/04/16 21:28:13;;;;;;;21.35;5.97;;;;;;;;;;5010088;28;97310;-79
2022/04/16 21:30:39;;;;;;;9.57;4.90;;;;;;;;;;5010374;28;95807;-79
2022/04/16 21:33:06;;;;;;;9.77;4.93;;;;;;;;;;5010531;28;96985;-78
2022/04/16 21:35:40;;;;;;;9.23;4.80;;;;;;;;;;5013147;28;97305;-79
2022/04/16 21:38:07;;;;;;;8.93;4.85;;;;;;;;;;5011065;28;96719;-77
2022/04/16 21:40:33;;;;;;;7.78;4.70;;;;;;;;;;5009965;28;97722;-78
2022/04/16 21:43:02;;;;;;;8.52;4.72;;;;;;;;;;5008872;28;95996;-78
2022/04/16 21:45:28;;;;;;;10.63;4.57;;;;;;;;;;5010261;28;96760;-79
2022/04/16 21:47:54;;;;;;;9.88;4.65;;;;;;;;;;5009941;28;97266;-79
2022/04/16 21:50:21;;;;;;;12.05;4.80;;;;;;;;;;5010233;28;95645;-79
2022/04/16 21:52:47;;;;;;;8.07;4.63;;;;;;;;;;5010274;28;96151;-80
2022/04/16 21:55:13;;;;;;;7.05;4.00;;;;;;;;;;5010007;28;97723;-80
2022/04/16 21:57:44;;;;;;;11.65;4.50;;;;;;;;;;5013351;28;95371;-79
2022/04/16 22:00:13;;;;;;;8.43;4.80;;;;;;;;;;5008524;28;97306;-79
2022/04/16 22:02:39;;;;;;;18.65;4.70;;;;;;;;;;5009724;28;96127;-78
2022/04/16 22:05:06;;;;;;;11.75;4.45;;;;;;;;;;5009980;28;96891;-78
2022/04/16 22:07:32;;;;;;;6.68;4.05;;;;;;;;;;5009319;28;97634;-79
2022/04/16 22:09:58;;;;;;;7.93;4.40;;;;;;;;;;5010301;28;95225;-79
2022/04/16 22:12:25;;;;;;;7.13;4.10;;;;;;;;;;5009643;28;96790;-78
2022/04/16 22:14:51;;;;;;;9.52;4.35;;;;;;;;;;5009259;28;98002;-79
2022/04/16 22:17:18;;;;;;;8.02;3.83;;;;;;;;;;5008668;28;95934;-79
2022/04/16 22:19:44;;;;;;;8.73;3.70;;;;;;;;;;5013156;28;97080;-79
2022/04/16 22:22:11;;;;;;;12.60;3.75;;;;;;;;;;5009666;28;95382;-79
2022/04/16 22:24:37;;;;;;;6.03;3.75;;;;;;;;;;5009765;28;97589;-79
2022/04/16 22:27:04;;;;;;;8.95;4.00;;;;;;;;;;5009212;28;97246;-79
2022/04/16 22:29:30;;;;;;;6.15;3.60;;;;;;;;;;5007912;28;95932;-79
2022/04/16 22:31:57;;;;;;;7.60;3.47;;;;;;;;;;5008469;28;96993;-80
2022/04/16 22:34:24;;;;;;;5.78;3.63;;;;;;;;;;5008811;28;97889;-80
2022/04/16 22:42:20;;;;;;;7.38;3.58;;;;;;;;;;5007227;28;97403;-80
2022/04/16 22:44:46;;;;;;;6.47;3.72;;;;;;;;;;5008464;28;96734;-80
2022/04/16 22:47:14;;;;;;;8.75;3.60;;;;;;;;;;5008868;28;97350;-81
2022/04/16 22:49:41;;;;;;;8.73;3.80;;;;;;;;;;4989268;28;95639;-81
2022/04/16 22:52:07;;;;;;;6.43;3.90;;;;;;;;;;4989863;28;96997;-81
2022/04/16 22:54:34;;;;;;;6.72;3.80;;;;;;;;;;4988948;28;97425;-80
2022/04/16 22:57:00;;;;;;;10.45;3.80;;;;;;;;;;5019985;28;96345;-78
2022/04/16 22:59:26;;;;;;;10.13;3.78;;;;;;;;;;5009715;28;96831;-80
2022/04/16 23:01:53;;;;;;;7.15;3.97;;;;;;;;;;5008946;28;97351;-81
2022/04/16 23:04:19;;;;;;;9.15;3.92;;;;;;;;;;5010630;28;95934;-80
2022/04/16 23:06:45;;;;;;;7.05;3.47;;;;;;;;;;5008845;28;97664;-81
2022/04/16 23:09:12;;;;;;;10.40;3.95;;;;;;;;;;5009310;28;95348;-81
2022/04/16 23:11:40;;;;;;;5.82;3.95;;;;;;;;;;5007180;28;96829;-82
2022/04/16 23:14:06;;;;;;;8.55;3.88;;;;;;;;;;4994869;28;97610;-83
2022/04/16 23:16:38;;;;;;;6.28;4.10;;;;;;;;;;4994312;28;95392;-81
2022/04/16 23:19:05;;;;;;;7.90;4.30;;;;;;;;;;5008591;28;97057;-83
2022/04/16 23:21:32;;;;;;;7.15;4.10;;;;;;;;;;5007998;28;97383;-80
2022/04/16 23:26:43;;;;;;;8.13;3.92;;;;;;;;;;5006369;28;97024;-82
2022/04/16 23:29:09;;;;;;;23.52;4.55;;;;;;;;;;5008131;28;95369;-84
2022/04/16 23:31:53;;;;;;;10.95;4.43;;;;;;;;;;5008662;28;95237;-81
2022/04/16 23:34:37;;;;;;;10.63;4.55;;;;;;;;;;5007069;28;96045;-83
2022/04/16 23:37:04;;;;;;;11.02;4.43;;;;;;;;;;5007549;28;95397;-82
2022/04/16 23:39:30;;;;;;;17.15;4.78;;;;;;;;;;5008379;28;96644;-79
2022/04/16 23:41:56;;;;;;;12.50;4.07;;;;;;;;;;5008174;28;97375;-80
2022/04/16 23:47:08;;;;;;;10.88;4.10;;;;;;;;;;5010081;28;97141;-79
2022/04/16 23:49:34;;;;;;;8.20;4.43;;;;;;;;;;5009827;28;97092;-80
2022/04/16 23:52:01;;;;;;;7.50;5.00;;;;;;;;;;5012031;28;97124;-79
2022/04/16 23:54:27;;;;;;;10.50;6.32;;;;;;;;;;5009702;28;97306;-81
2022/04/16 23:59:56;;;;;;;19.30;7.60;;;;;;;;;;5010558;28;97636;-81
